Terminal Aerodrome Forecast
Issued by NWS Wichita, KS

Home | Current Version | Previous Version | Text Only | Print | Product List | Glossary On
Versions: 1 2 3 4 5 6 7 8 9 10 11 12 13 14 15 16 17 18 19 20 21 22
000
FTUS43 KICT 012146 CCA
TAFICT
TAF COR
KICT 012146Z 0122/0218 33024G35KT P6SM BKN025
      TEMPO 0122/0124 -SN
     FM020200 34017G25KT P6SM SCT030
     FM020800 34011KT P6SM SKC
     FM021500 18009KT P6SM SKC=

USA.gov is the U.S. government's official web portal to all federal, state and local government web resources and services.